sensor_id;sensor_type;location;lat;lon;timestamp;pressure;altitude;pressure_sealevel;temperature;humidity
60832;BME280;46665;51.558;-0.448;2023-02-17T00:01:51;101444.59;;;9.65;100.00
60832;BME280;46665;51.558;-0.448;2023-02-17T00:04:35;101438.31;;;9.64;100.00
60832;BME280;46665;51.558;-0.448;2023-02-17T00:07:19;101448.69;;;9.67;100.00
60832;BME280;46665;51.558;-0.448;2023-02-17T00:10:03;101446.78;;;9.68;100.00
60832;BME280;46665;51.558;-0.448;2023-02-17T00:12:47;101448.94;;;9.66;100.00
60832;BME280;46665;51.558;-0.448;2023-02-17T00:15:31;101449.22;;;9.69;100.00
60832;BME280;46665;51.558;-0.448;2023-02-17T00:18:15;101444.63;;;9.70;100.00
60832;BME280;46665;51.558;-0.448;2023-02-17T00:20:59;101437.53;;;9.69;100.00
60832;BME280;46665;51.558;-0.448;2023-02-17T00:23:44;101437.81;;;9.67;100.00
60832;BME280;46665;51.558;-0.448;2023-02-17T00:26:28;101445.44;;;9.70;100.00
60832;BME280;46665;51.558;-0.448;2023-02-17T00:29:13;101436.47;;;9.70;100.00
60832;BME280;46665;51.558;-0.448;2023-02-17T00:31:57;101431.88;;;9.70;100.00
60832;BME280;46665;51.558;-0.448;2023-02-17T00:34:40;101431.28;;;9.68;100.00
60832;BME280;46665;51.558;-0.448;2023-02-17T00:37:24;101432.16;;;9.74;100.00
60832;BME280;46665;51.558;-0.448;2023-02-17T00:40:08;101430.81;;;9.76;100.00
60832;BME280;46665;51.558;-0.448;2023-02-17T00:42:53;101430.00;;;9.76;100.00
60832;BME280;46665;51.558;-0.448;2023-02-17T00:45:37;101413.41;;;9.72;100.00
60832;BME280;46665;51.558;-0.448;2023-02-17T00:48:21;101420.78;;;9.77;100.00
60832;BME280;46665;51.558;-0.448;2023-02-17T00:51:05;101419.97;;;9.76;100.00
60832;BME280;46665;51.558;-0.448;2023-02-17T00:53:50;101419.19;;;9.81;100.00
60832;BME280;46665;51.558;-0.448;2023-02-17T00:56:34;101415.13;;;9.84;100.00
60832;BME280;46665;51.558;-0.448;2023-02-17T00:59:18;101409.69;;;9.84;100.00
60832;BME280;46665;51.558;-0.448;2023-02-17T01:02:02;101395.88;;;9.85;100.00
60832;BME280;46665;51.558;-0.448;2023-02-17T01:04:45;101409.19;;;9.87;100.00
60832;BME280;46665;51.558;-0.448;2023-02-17T01:07:29;101411.66;;;9.88;100.00
60832;BME280;46665;51.558;-0.448;2023-02-17T01:10:13;101413.56;;;9.88;100.00
60832;BME280;46665;51.558;-0.448;2023-02-17T01:12:58;101410.84;;;9.88;100.00
60832;BME280;46665;51.558;-0.448;2023-02-17T01:15:44;101416.38;;;9.98;100.00
60832;BME280;46665;51.558;-0.448;2023-02-17T01:18:28;101415.28;;;9.99;100.00
60832;BME280;46665;51.558;-0.448;2023-02-17T01:21:20;101410.94;;;9.98;100.00
60832;BME280;46665;51.558;-0.448;2023-02-17T01:24:07;101412.88;;;10.03;100.00
60832;BME280;46665;51.558;-0.448;2023-02-17T01:26:51;101410.97;;;10.03;100.00
60832;BME280;46665;51.558;-0.448;2023-02-17T01:29:35;101419.19;;;10.08;100.00
60832;BME280;46665;51.558;-0.448;2023-02-17T01:32:19;101413.47;;;10.10;100.00
60832;BME280;46665;51.558;-0.448;2023-02-17T01:35:03;101419.78;;;10.15;100.00
60832;BME280;46665;51.558;-0.448;2023-02-17T01:37:47;101409.97;;;10.14;100.00
60832;BME280;46665;51.558;-0.448;2023-02-17T01:40:31;101405.13;;;10.22;100.00
60832;BME280;46665;51.558;-0.448;2023-02-17T01:43:16;101414.94;;;10.23;100.00
60832;BME280;46665;51.558;-0.448;2023-02-17T01:46:02;101412.19;;;10.23;100.00
60832;BME280;46665;51.558;-0.448;2023-02-17T01:48:49;101399.16;;;10.25;100.00
60832;BME280;46665;51.558;-0.448;2023-02-17T01:51:34;101414.16;;;10.27;100.00
60832;BME280;46665;51.558;-0.448;2023-02-17T01:54:26;101398.09;;;10.26;100.00
60832;BME280;46665;51.558;-0.448;2023-02-17T01:57:15;101416.38;;;10.30;100.00
60832;BME280;46665;51.558;-0.448;2023-02-17T02:00:01;101417.75;;;10.33;100.00
60832;BME280;46665;51.558;-0.448;2023-02-17T02:02:47;101415.88;;;10.33;100.00
60832;BME280;46665;51.558;-0.448;2023-02-17T02:05:32;101418.84;;;10.32;100.00
60832;BME280;46665;51.558;-0.448;2023-02-17T02:08:17;101410.44;;;10.33;100.00
60832;BME280;46665;51.558;-0.448;2023-02-17T02:11:01;101404.44;;;10.31;100.00
60832;BME280;46665;51.558;-0.448;2023-02-17T02:13:45;101399.25;;;10.30;100.00
60832;BME280;46665;51.558;-0.448;2023-02-17T02:16:44;101396.53;;;10.30;100.00
60832;BME280;46665;51.558;-0.448;2023-02-17T02:23:14;101393.22;;;10.28;100.00
60832;BME280;46665;51.558;-0.448;2023-02-17T02:29:12;101391.56;;;10.27;100.00
60832;BME280;46665;51.558;-0.448;2023-02-17T02:35:33;101395.38;;;10.26;100.00
60832;BME280;46665;51.558;-0.448;2023-02-17T02:38:27;101393.16;;;10.23;100.00
60832;BME280;46665;51.558;-0.448;2023-02-17T02:41:28;101390.72;;;10.21;100.00
60832;BME280;46665;51.558;-0.448;2023-02-17T02:44:15;101403.53;;;10.26;100.00
60832;BME280;46665;51.558;-0.448;2023-02-17T02:47:03;101415.50;;;10.25;100.00
60832;BME280;46665;51.558;-0.448;2023-02-17T02:49:48;101410.63;;;10.27;100.00
60832;BME280;46665;51.558;-0.448;2023-02-17T02:59:21;101412.91;;;10.40;100.00
60832;BME280;46665;51.558;-0.448;2023-02-17T03:02:33;101403.41;;;10.43;100.00
60832;BME280;46665;51.558;-0.448;2023-02-17T03:08:42;101404.53;;;10.47;100.00
60832;BME280;46665;51.558;-0.448;2023-02-17T03:11:29;101401.59;;;10.53;100.00
60832;BME280;46665;51.558;-0.448;2023-02-17T03:14:18;101400.75;;;10.53;100.00
60832;BME280;46665;51.558;-0.448;2023-02-17T03:17:03;101396.97;;;10.54;100.00
60832;BME280;46665;51.558;-0.448;2023-02-17T03:19:47;101389.06;;;10.52;100.00
60832;BME280;46665;51.558;-0.448;2023-02-17T03:22:37;101394.00;;;10.60;100.00
60832;BME280;46665;51.558;-0.448;2023-02-17T03:25:23;101397.25;;;10.57;100.00
60832;BME280;46665;51.558;-0.448;2023-02-17T03:28:07;101406.78;;;10.60;100.00
60832;BME280;46665;51.558;-0.448;2023-02-17T03:30:51;101388.28;;;10.57;100.00
60832;BME280;46665;51.558;-0.448;2023-02-17T03:33:36;101391.00;;;10.57;100.00
60832;BME280;46665;51.558;-0.448;2023-02-17T03:36:20;101389.13;;;10.62;100.00
60832;BME280;46665;51.558;-0.448;2023-02-17T03:39:04;101391.28;;;10.60;100.00
60832;BME280;46665;51.558;-0.448;2023-02-17T03:41:48;101390.78;;;10.63;100.00
60832;BME280;46665;51.558;-0.448;2023-02-17T03:44:34;101404.38;;;10.63;100.00
60832;BME280;46665;51.558;-0.448;2023-02-17T03:47:18;101393.97;;;10.55;100.00
60832;BME280;46665;51.558;-0.448;2023-02-17T03:50:02;101385.84;;;10.60;100.00
60832;BME280;46665;51.558;-0.448;2023-02-17T03:52:46;101383.41;;;10.59;100.00
60832;BME280;46665;51.558;-0.448;2023-02-17T03:55:30;101391.00;;;10.57;100.00
60832;BME280;46665;51.558;-0.448;2023-02-17T03:58:14;101381.72;;;10.53;100.00
60832;BME280;46665;51.558;-0.448;2023-02-17T04:00:58;101387.97;;;10.48;100.00
60832;BME280;46665;51.558;-0.448;2023-02-17T04:03:42;101394.22;;;10.49;100.00
60832;BME280;46665;51.558;-0.448;2023-02-17T04:06:26;101389.28;;;10.46;100.00
60832;BME280;46665;51.558;-0.448;2023-02-17T04:09:10;101401.00;;;10.46;100.00
60832;BME280;46665;51.558;-0.448;2023-02-17T04:11:54;101403.16;;;10.44;100.00
60832;BME280;46665;51.558;-0.448;2023-02-17T04:14:38;101423.59;;;10.47;100.00
60832;BME280;46665;51.558;-0.448;2023-02-17T04:17:22;101420.34;;;10.50;100.00
60832;BME280;46665;51.558;-0.448;2023-02-17T04:20:06;101431.53;;;10.53;100.00
60832;BME280;46665;51.558;-0.448;2023-02-17T04:22:51;101432.63;;;10.57;100.00
60832;BME280;46665;51.558;-0.448;2023-02-17T04:25:36;101431.81;;;10.57;100.00
60832;BME280;46665;51.558;-0.448;2023-02-17T04:28:20;101434.28;;;10.58;100.00
60832;BME280;46665;51.558;-0.448;2023-02-17T04:31:05;101415.75;;;10.55;100.00
60832;BME280;46665;51.558;-0.448;2023-02-17T04:33:49;101427.50;;;10.61;100.00
60832;BME280;46665;51.558;-0.448;2023-02-17T04:36:33;101434.31;;;10.63;100.00
60832;BME280;46665;51.558;-0.448;2023-02-17T04:39:17;101421.78;;;10.62;100.00
60832;BME280;46665;51.558;-0.448;2023-02-17T04:42:01;101422.31;;;10.59;100.00
60832;BME280;46665;51.558;-0.448;2023-02-17T04:44:45;101410.88;;;10.57;100.00
60832;BME280;46665;51.558;-0.448;2023-02-17T04:47:29;101413.91;;;10.61;100.00
60832;BME280;46665;51.558;-0.448;2023-02-17T04:50:13;101417.44;;;10.61;100.00
60832;BME280;46665;51.558;-0.448;2023-02-17T04:52:57;101411.72;;;10.63;100.00
60832;BME280;46665;51.558;-0.448;2023-02-17T04:55:41;101415.00;;;10.65;100.00
60832;BME280;46665;51.558;-0.448;2023-02-17T04:58:26;101422.38;;;10.70;100.00
60832;BME280;46665;51.558;-0.448;2023-02-17T05:01:10;101413.41;;;10.69;100.00
60832;BME280;46665;51.558;-0.448;2023-02-17T05:03:53;101407.94;;;10.69;100.00
60832;BME280;46665;51.558;-0.448;2023-02-17T05:06:37;101410.38;;;10.66;100.00
60832;BME280;46665;51.558;-0.448;2023-02-17T05:09:21;101419.34;;;10.61;100.00
60832;BME280;46665;51.558;-0.448;2023-02-17T05:12:05;101421.75;;;10.57;100.00
60832;BME280;46665;51.558;-0.448;2023-02-17T05:14:50;101421.16;;;10.50;100.00
60832;BME280;46665;51.558;-0.448;2023-02-17T05:17:34;101431.50;;;10.48;100.00
60832;BME280;46665;51.558;-0.448;2023-02-17T05:20:18;101426.56;;;10.45;100.00
60832;BME280;46665;51.558;-0.448;2023-02-17T05:23:02;101432.53;;;10.42;100.00
60832;BME280;46665;51.558;-0.448;2023-02-17T05:25:47;101434.97;;;10.38;100.00
60832;BME280;46665;51.558;-0.448;2023-02-17T05:28:31;101417.75;;;10.33;100.00
60832;BME280;46665;51.558;-0.448;2023-02-17T05:31:15;101443.34;;;10.32;100.00
60832;BME280;46665;51.558;-0.448;2023-02-17T05:33:59;101436.78;;;10.33;100.00
60832;BME280;46665;51.558;-0.448;2023-02-17T05:36:43;101431.63;;;10.31;100.00
60832;BME280;46665;51.558;-0.448;2023-02-17T05:39:27;101434.03;;;10.28;100.00
60832;BME280;46665;51.558;-0.448;2023-02-17T05:42:12;101423.41;;;10.26;100.00
60832;BME280;46665;51.558;-0.448;2023-02-17T05:44:56;101431.31;;;10.28;100.00
60832;BME280;46665;51.558;-0.448;2023-02-17T05:47:40;101421.75;;;10.25;100.00
60832;BME280;46665;51.558;-0.448;2023-02-17T05:50:24;101420.63;;;10.21;100.00
60832;BME280;46665;51.558;-0.448;2023-02-17T05:53:08;101414.88;;;10.17;100.00
60832;BME280;46665;51.558;-0.448;2023-02-17T05:55:52;101418.69;;;10.16;100.00
60832;BME280;46665;51.558;-0.448;2023-02-17T05:58:36;101418.09;;;10.09;100.00
60832;BME280;46665;51.558;-0.448;2023-02-17T06:01:21;101415.41;;;10.14;100.00
60832;BME280;46665;51.558;-0.448;2023-02-17T06:04:04;101412.13;;;10.12;100.00
60832;BME280;46665;51.558;-0.448;2023-02-17T06:06:48;101415.41;;;10.14;100.00
60832;BME280;46665;51.558;-0.448;2023-02-17T06:09:32;101414.03;;;10.12;100.00
60832;BME280;46665;51.558;-0.448;2023-02-17T06:12:16;101414.31;;;10.10;100.00
60832;BME280;46665;51.558;-0.448;2023-02-17T06:15:00;101411.53;;;10.05;100.00
60832;BME280;46665;51.558;-0.448;2023-02-17T06:17:44;101412.88;;;10.03;100.00
60832;BME280;46665;51.558;-0.448;2023-02-17T06:20:28;101396.81;;;10.01;100.00
60832;BME280;46665;51.558;-0.448;2023-02-17T06:23:12;101399.72;;;9.94;100.00
60832;BME280;46665;51.558;-0.448;2023-02-17T06:25:56;101416.38;;;9.98;100.00
60832;BME280;46665;51.558;-0.448;2023-02-17T06:28:40;101416.38;;;9.98;100.00
60832;BME280;46665;51.558;-0.448;2023-02-17T06:31:24;101412.28;;;9.95;100.00
60832;BME280;46665;51.558;-0.448;2023-02-17T06:34:08;101419.03;;;9.93;100.00
60832;BME280;46665;51.558;-0.448;2023-02-17T06:36:52;101410.59;;;9.94;100.00
60832;BME280;46665;51.558;-0.448;2023-02-17T06:39:37;101422.88;;;9.97;100.00
60832;BME280;46665;51.558;-0.448;2023-02-17T06:42:21;101433.75;;;9.97;100.00
60832;BME280;46665;51.558;-0.448;2023-02-17T06:45:05;101432.94;;;9.96;100.00
60832;BME280;46665;51.558;-0.448;2023-02-17T06:47:49;101428.31;;;9.97;100.00
60832;BME280;46665;51.558;-0.448;2023-02-17T06:50:33;101415.22;;;9.94;100.00
60832;BME280;46665;51.558;-0.448;2023-02-17T06:53:17;101410.09;;;9.97;100.00
60832;BME280;46665;51.558;-0.448;2023-02-17T06:56:02;101399.72;;;9.94;100.00
60832;BME280;46665;51.558;-0.448;2023-02-17T06:58:46;101401.94;;;9.97;100.00
60832;BME280;46665;51.558;-0.448;2023-02-17T07:01:30;101393.00;;;10.02;100.00
60832;BME280;46665;51.558;-0.448;2023-02-17T07:04:14;101394.91;;;10.02;100.00
60832;BME280;46665;51.558;-0.448;2023-02-17T07:06:58;101398.19;;;10.04;100.00
60832;BME280;46665;51.558;-0.448;2023-02-17T07:09:42;101410.69;;;10.05;100.00
60832;BME280;46665;51.558;-0.448;2023-02-17T07:12:26;101420.25;;;10.07;100.00
60832;BME280;46665;51.558;-0.448;2023-02-17T07:15:11;101405.59;;;10.08;100.00
60832;BME280;46665;51.558;-0.448;2023-02-17T07:17:55;101415.31;;;10.04;100.00
60832;BME280;46665;51.558;-0.448;2023-02-17T07:20:38;101416.97;;;10.05;100.00
60832;BME280;46665;51.558;-0.448;2023-02-17T07:23:22;101410.41;;;10.01;100.00
60832;BME280;46665;51.558;-0.448;2023-02-17T07:26:09;101409.31;;;10.02;100.00
60832;BME280;46665;51.558;-0.448;2023-02-17T07:28:53;101408.03;;;10.10;100.00
60832;BME280;46665;51.558;-0.448;2023-02-17T07:31:37;101409.63;;;10.06;100.00
60832;BME280;46665;51.558;-0.448;2023-02-17T07:34:22;101416.69;;;10.07;100.00
60832;BME280;46665;51.558;-0.448;2023-02-17T07:37:07;101424.56;;;10.03;100.00
60832;BME280;46665;51.558;-0.448;2023-02-17T07:39:51;101427.84;;;10.05;100.00
60832;BME280;46665;51.558;-0.448;2023-02-17T07:42:35;101456.47;;;10.13;100.00
60832;BME280;46665;51.558;-0.448;2023-02-17T07:45:19;101458.88;;;10.09;100.00
60832;BME280;46665;51.558;-0.448;2023-02-17T07:48:03;101483.69;;;10.13;100.00
60832;BME280;46665;51.558;-0.448;2023-02-17T07:50:47;101484.78;;;10.17;100.00
60832;BME280;46665;51.558;-0.448;2023-02-17T07:53:32;101483.97;;;10.16;100.00
60832;BME280;46665;51.558;-0.448;2023-02-17T07:56:18;101496.75;;;10.16;100.00
60832;BME280;46665;51.558;-0.448;2023-02-17T07:59:02;101528.31;;;10.17;100.00
60832;BME280;46665;51.558;-0.448;2023-02-17T08:01:46;101519.56;;;10.15;100.00
60832;BME280;46665;51.558;-0.448;2023-02-17T08:04:30;101527.72;;;10.15;100.00
60832;BME280;46665;51.558;-0.448;2023-02-17T08:07:15;101529.63;;;10.14;100.00
60832;BME280;46665;51.558;-0.448;2023-02-17T08:09:59;101515.47;;;10.12;100.00
60832;BME280;46665;51.558;-0.448;2023-02-17T08:13:01;101521.41;;;10.09;100.00
60832;BME280;46665;51.558;-0.448;2023-02-17T08:16:04;101510.81;;;10.08;100.00
60832;BME280;46665;51.558;-0.448;2023-02-17T08:18:48;101511.63;;;10.08;100.00
60832;BME280;46665;51.558;-0.448;2023-02-17T08:21:32;101512.75;;;10.12;100.00
60832;BME280;46665;51.558;-0.448;2023-02-17T08:24:16;101525.84;;;10.15;100.00
60832;BME280;46665;51.558;-0.448;2023-02-17T08:27:00;101514.97;;;10.15;100.00
60832;BME280;46665;51.558;-0.448;2023-02-17T08:29:44;101519.91;;;10.18;100.00
60832;BME280;46665;51.558;-0.448;2023-02-17T08:32:28;101522.38;;;10.25;100.00
60832;BME280;46665;51.558;-0.448;2023-02-17T08:35:12;101518.59;;;10.26;100.00
60832;BME280;46665;51.558;-0.448;2023-02-17T08:37:57;101522.97;;;10.27;100.00
60832;BME280;46665;51.558;-0.448;2023-02-17T08:40:41;101529.56;;;10.31;100.00
60832;BME280;46665;51.558;-0.448;2023-02-17T08:43:25;101513.28;;;10.36;100.00
60832;BME280;46665;51.558;-0.448;2023-02-17T08:46:10;101516.81;;;10.37;100.00
60832;BME280;46665;51.558;-0.448;2023-02-17T08:48:55;101510.06;;;10.39;100.00
60832;BME280;46665;51.558;-0.448;2023-02-17T08:51:39;101522.31;;;10.42;100.00
60832;BME280;46665;51.558;-0.448;2023-02-17T08:54:23;101518.00;;;10.46;100.00
60832;BME280;46665;51.558;-0.448;2023-02-17T08:57:07;101526.66;;;10.43;100.00
60832;BME280;46665;51.558;-0.448;2023-02-17T08:59:52;101522.56;;;10.40;100.00
60832;BME280;46665;51.558;-0.448;2023-02-17T09:02:36;101537.53;;;10.43;100.00
60832;BME280;46665;51.558;-0.448;2023-02-17T09:05:20;101528.84;;;10.41;100.00
60832;BME280;46665;51.558;-0.448;2023-02-17T09:08:04;101531.28;;;10.43;100.00
60832;BME280;46665;51.558;-0.448;2023-02-17T09:10:50;101519.88;;;10.46;100.00
60832;BME280;46665;51.558;-0.448;2023-02-17T09:13:35;101519.38;;;10.49;100.00
60832;BME280;46665;51.558;-0.448;2023-02-17T09:16:19;101509.31;;;10.49;100.00
60832;BME280;46665;51.558;-0.448;2023-02-17T09:19:05;101511.56;;;10.57;100.00
60832;BME280;46665;51.558;-0.448;2023-02-17T09:21:49;101508.84;;;10.57;100.00
60832;BME280;46665;51.558;-0.448;2023-02-17T09:24:33;101500.44;;;10.59;100.00
60832;BME280;46665;51.558;-0.448;2023-02-17T09:27:21;101504.47;;;10.56;100.00
60832;BME280;46665;51.558;-0.448;2023-02-17T09:30:06;101494.16;;;10.58;100.00
60832;BME280;46665;51.558;-0.448;2023-02-17T09:32:50;101498.50;;;10.59;100.00
60832;BME280;46665;51.558;-0.448;2023-02-17T09:35:35;101504.78;;;10.60;100.00
60832;BME280;46665;51.558;-0.448;2023-02-17T09:38:20;101498.84;;;10.68;100.00
60832;BME280;46665;51.558;-0.448;2023-02-17T09:41:57;101499.97;;;10.72;100.00
60832;BME280;46665;51.558;-0.448;2023-02-17T09:44:29;101509.28;;;10.76;100.00
60832;BME280;46665;51.558;-0.448;2023-02-17T09:47:34;101504.63;;;10.77;100.00
60832;BME280;46665;51.558;-0.448;2023-02-17T09:53:42;101508.25;;;10.88;100.00
60832;BME280;46665;51.558;-0.448;2023-02-17T09:56:37;101498.44;;;10.87;100.00
60832;BME280;46665;51.558;-0.448;2023-02-17T09:59:36;101491.66;;;10.89;100.00
60832;BME280;46665;51.558;-0.448;2023-02-17T10:02:46;101488.97;;;10.94;100.00
60832;BME280;46665;51.558;-0.448;2023-02-17T10:05:37;101501.22;;;10.92;100.00
60832;BME280;46665;51.558;-0.448;2023-02-17T10:08:26;101498.75;;;10.95;100.00
60832;BME280;46665;51.558;-0.448;2023-02-17T10:11:31;101506.97;;;11.00;100.00
60832;BME280;46665;51.558;-0.448;2023-02-17T10:17:36;101502.66;;;11.04;100.00
60832;BME280;46665;51.558;-0.448;2023-02-17T10:20:29;101507.31;;;11.09;100.00
60832;BME280;46665;51.558;-0.448;2023-02-17T10:23:19;101495.59;;;11.14;100.00
60832;BME280;46665;51.558;-0.448;2023-02-17T10:32:24;101497.84;;;11.22;100.00
60832;BME280;46665;51.558;-0.448;2023-02-17T10:35:14;101503.84;;;11.29;100.00
60832;BME280;46665;51.558;-0.448;2023-02-17T10:38:17;101496.25;;;11.31;100.00
60832;BME280;46665;51.558;-0.448;2023-02-17T10:41:07;101514.78;;;11.34;100.00
60832;BME280;46665;51.558;-0.448;2023-02-17T10:43:55;101528.97;;;11.36;100.00
60832;BME280;46665;51.558;-0.448;2023-02-17T10:46:40;101506.06;;;11.32;100.00
60832;BME280;46665;51.558;-0.448;2023-02-17T10:49:29;101497.63;;;11.34;100.00
60832;BME280;46665;51.558;-0.448;2023-02-17T10:52:19;101501.16;;;11.34;100.00
60832;BME280;46665;51.558;-0.448;2023-02-17T10:55:16;101502.03;;;11.40;100.00
60832;BME280;46665;51.558;-0.448;2023-02-17T10:58:18;101493.31;;;11.43;100.00
60832;BME280;46665;51.558;-0.448;2023-02-17T11:01:03;101502.06;;;11.50;100.00
60832;BME280;46665;51.558;-0.448;2023-02-17T11:04:04;101506.16;;;11.53;100.00
60832;BME280;46665;51.558;-0.448;2023-02-17T11:06:51;101511.88;;;11.51;100.00
60832;BME280;46665;51.558;-0.448;2023-02-17T11:09:43;101499.91;;;11.52;100.00
60832;BME280;46665;51.558;-0.448;2023-02-17T11:12:28;101508.09;;;11.57;100.00
60832;BME280;46665;51.558;-0.448;2023-02-17T11:15:18;101527.97;;;11.58;100.00
60832;BME280;46665;51.558;-0.448;2023-02-17T11:18:34;101535.06;;;11.59;100.00
60832;BME280;46665;51.558;-0.448;2023-02-17T11:21:22;101526.06;;;11.58;100.00
60832;BME280;46665;51.558;-0.448;2023-02-17T11:24:10;101550.88;;;11.62;100.00
60832;BME280;46665;51.558;-0.448;2023-02-17T11:27:03;101536.44;;;11.61;100.00
60832;BME280;46665;51.558;-0.448;2023-02-17T11:29:48;101539.19;;;11.71;100.00
60832;BME280;46665;51.558;-0.448;2023-02-17T11:32:32;101540.03;;;11.77;100.00
60832;BME280;46665;51.558;-0.448;2023-02-17T11:35:27;101541.16;;;11.81;100.00
60832;BME280;46665;51.558;-0.448;2023-02-17T11:41:17;101550.72;;;11.84;100.00
60832;BME280;46665;51.558;-0.448;2023-02-17T11:44:01;101555.66;;;11.87;100.00
60832;BME280;46665;51.558;-0.448;2023-02-17T11:47:01;101564.09;;;11.85;100.00
60832;BME280;46665;51.558;-0.448;2023-02-17T11:58:58;101545.56;;;11.87;100.00
60832;BME280;46665;51.558;-0.448;2023-02-17T12:07:37;101562.22;;;11.91;100.00
60832;BME280;46665;51.558;-0.448;2023-02-17T12:10:58;101570.66;;;11.89;100.00
60832;BME280;46665;51.558;-0.448;2023-02-17T12:35:50;101574.03;;;12.22;100.00
60832;BME280;46665;51.558;-0.448;2023-02-17T12:38:42;101572.69;;;12.25;100.00
60832;BME280;46665;51.558;-0.448;2023-02-17T12:41:33;101578.97;;;12.30;100.00
60832;BME280;46665;51.558;-0.448;2023-02-17T12:44:22;101583.63;;;12.35;100.00
60832;BME280;46665;51.558;-0.448;2023-02-17T12:47:15;101579.25;;;12.39;100.00
60832;BME280;46665;51.558;-0.448;2023-02-17T12:50:26;101591.81;;;12.45;100.00
60832;BME280;46665;51.558;-0.448;2023-02-17T12:53:19;101597.59;;;12.59;100.00
60832;BME280;46665;51.558;-0.448;2023-02-17T12:59:14;101597.84;;;12.83;100.00
60832;BME280;46665;51.558;-0.448;2023-02-17T13:02:03;101597.34;;;12.91;100.00
60832;BME280;46665;51.558;-0.448;2023-02-17T13:04:51;101601.97;;;12.96;100.00
60832;BME280;46665;51.558;-0.448;2023-02-17T13:07:38;101595.41;;;13.07;100.00
60832;BME280;46665;51.558;-0.448;2023-02-17T13:10:35;101591.84;;;13.17;100.00
60832;BME280;46665;51.558;-0.448;2023-02-17T13:13:28;101590.50;;;13.14;100.00
60832;BME280;46665;51.558;-0.448;2023-02-17T13:16:13;101604.69;;;13.11;100.00
60832;BME280;46665;51.558;-0.448;2023-02-17T13:19:06;101590.19;;;13.11;100.00
60832;BME280;46665;51.558;-0.448;2023-02-17T13:21:53;101601.13;;;13.11;100.00
60832;BME280;46665;51.558;-0.448;2023-02-17T13:24:53;101601.69;;;13.18;100.00
60832;BME280;46665;51.558;-0.448;2023-02-17T13:27:41;101609.06;;;13.28;100.00
60832;BME280;46665;51.558;-0.448;2023-02-17T13:30:39;101612.63;;;13.33;100.00
60832;BME280;46665;51.558;-0.448;2023-02-17T13:39:31;101629.31;;;13.37;100.00
60832;BME280;46665;51.558;-0.448;2023-02-17T13:45:24;101637.19;;;13.43;100.00
60832;BME280;46665;51.558;-0.448;2023-02-17T13:51:20;101640.22;;;13.42;100.00
60832;BME280;46665;51.558;-0.448;2023-02-17T13:54:07;101652.53;;;13.50;100.00
60832;BME280;46665;51.558;-0.448;2023-02-17T13:56:52;101652.22;;;13.51;100.00
60832;BME280;46665;51.558;-0.448;2023-02-17T13:59:36;101654.69;;;13.53;100.00
60832;BME280;46665;51.558;-0.448;2023-02-17T14:02:20;101657.16;;;13.44;100.00
60832;BME280;46665;51.558;-0.448;2023-02-17T14:05:15;101651.41;;;13.46;100.00
60832;BME280;46665;51.558;-0.448;2023-02-17T14:08:11;101654.41;;;13.49;100.00
60832;BME280;46665;51.558;-0.448;2023-02-17T14:10:56;101657.16;;;13.49;100.00
60832;BME280;46665;51.558;-0.448;2023-02-17T14:13:43;101666.72;;;13.52;100.00
60832;BME280;46665;51.558;-0.448;2023-02-17T14:16:31;101655.25;;;13.50;100.00
60832;BME280;46665;51.558;-0.448;2023-02-17T14:19:17;101657.44;;;13.48;100.00
60832;BME280;46665;51.558;-0.448;2023-02-17T14:22:04;101658.50;;;13.52;100.00
60832;BME280;46665;51.558;-0.448;2023-02-17T14:25:12;101661.25;;;13.52;100.00
60832;BME280;46665;51.558;-0.448;2023-02-17T14:27:56;101667.00;;;13.50;100.00
60832;BME280;46665;51.558;-0.448;2023-02-17T14:30:40;101681.50;;;13.51;100.00
60832;BME280;46665;51.558;-0.448;2023-02-17T14:33:24;101680.94;;;13.49;100.00
60832;BME280;46665;51.558;-0.448;2023-02-17T14:36:08;101680.69;;;13.45;100.00
60832;BME280;46665;51.558;-0.448;2023-02-17T14:38:56;101683.41;;;13.50;100.00
60832;BME280;46665;51.558;-0.448;2023-02-17T14:41:40;101679.31;;;13.48;100.00
60832;BME280;46665;51.558;-0.448;2023-02-17T14:44:24;101682.31;;;13.46;100.00
60832;BME280;46665;51.558;-0.448;2023-02-17T14:47:08;101682.59;;;13.44;100.00
60832;BME280;46665;51.558;-0.448;2023-02-17T14:49:52;101685.59;;;13.43;100.00
60832;BME280;46665;51.558;-0.448;2023-02-17T14:52:40;101680.94;;;13.38;99.51
60832;BME280;46665;51.558;-0.448;2023-02-17T14:55:31;101698.72;;;13.41;99.78
60832;BME280;46665;51.558;-0.448;2023-02-17T14:58:19;101695.44;;;13.39;100.00
60832;BME280;46665;51.558;-0.448;2023-02-17T15:01:03;101704.19;;;13.41;99.87
60832;BME280;46665;51.558;-0.448;2023-02-17T15:03:48;101688.34;;;13.33;100.00
60832;BME280;46665;51.558;-0.448;2023-02-17T15:06:44;101704.75;;;13.28;100.00
60832;BME280;46665;51.558;-0.448;2023-02-17T15:09:30;101706.38;;;13.34;100.00
60832;BME280;46665;51.558;-0.448;2023-02-17T15:12:20;101716.22;;;13.30;100.00
60832;BME280;46665;51.558;-0.448;2023-02-17T15:15:04;101727.72;;;13.37;100.00
60832;BME280;46665;51.558;-0.448;2023-02-17T15:17:49;101722.78;;;13.34;100.00
60832;BME280;46665;51.558;-0.448;2023-02-17T15:20:33;101730.97;;;13.34;100.00
60832;BME280;46665;51.558;-0.448;2023-02-17T15:23:19;101735.63;;;13.33;100.00
60832;BME280;46665;51.558;-0.448;2023-02-17T15:26:04;101732.06;;;13.28;100.00
60832;BME280;46665;51.558;-0.448;2023-02-17T15:28:48;101746.81;;;13.27;100.00
60832;BME280;46665;51.558;-0.448;2023-02-17T15:31:32;101740.50;;;13.21;100.00
60832;BME280;46665;51.558;-0.448;2023-02-17T15:34:19;101736.69;;;13.07;100.00
60832;BME280;46665;51.558;-0.448;2023-02-17T15:37:04;101754.94;;;13.01;100.00
60832;BME280;46665;51.558;-0.448;2023-02-17T15:39:48;101747.59;;;12.91;100.00